Time;durP1;ratioP1;P1;durP2;ratioP2;P2;SDS_P1;SDS_P2;PMS_P1;PMS_P2;Temp;Humidity;BMP_temperature;BMP_pressure;BME280_temperature;BME280_humidity;BME280_pressure;Samples;Min_cycle;Max_cycle;Signal;HPM_P1;HPM_P2
2024/03/03 00:00:01;;;;;;;4.10;3.70;;;;;;;;;;5017877;28;20193;-58
2024/03/03 00:02:27;;;;;;;5.57;3.97;;;;;;;;;;5011366;28;20310;-58
2024/03/03 00:04:53;;;;;;;4.20;3.57;;;;;;;;;;5021787;28;20233;-58
2024/03/03 00:07:19;;;;;;;4.10;3.70;;;;;;;;;;5021264;28;20187;-58
2024/03/03 00:09:46;;;;;;;3.80;3.40;;;;;;;;;;5018298;28;20187;-59
2024/03/03 00:12:12;;;;;;;3.97;3.57;;;;;;;;;;5018994;28;20265;-59
2024/03/03 00:14:38;;;;;;;3.93;3.60;;;;;;;;;;5023009;28;20521;-57
2024/03/03 00:17:04;;;;;;;3.67;3.23;;;;;;;;;;5022986;28;20174;-59
2024/03/03 00:19:30;;;;;;;4.43;3.87;;;;;;;;;;5022989;28;20186;-55
2024/03/03 00:21:56;;;;;;;3.67;3.30;;;;;;;;;;5015302;28;20581;-58
2024/03/03 00:24:22;;;;;;;3.93;3.53;;;;;;;;;;5012363;28;20192;-58
2024/03/03 00:26:49;;;;;;;3.97;3.57;;;;;;;;;;5013089;28;20355;-58
2024/03/03 00:29:15;;;;;;;3.90;3.23;;;;;;;;;;5023849;28;20810;-58
2024/03/03 00:31:44;;;;;;;3.77;3.47;;;;;;;;;;5017365;28;20646;-58
2024/03/03 00:34:10;;;;;;;5.83;4.13;;;;;;;;;;5019815;28;20608;-58
2024/03/03 00:36:36;;;;;;;6.07;3.63;;;;;;;;;;5018249;28;20214;-59
2024/03/03 00:39:05;;;;;;;3.80;3.37;;;;;;;;;;5023153;28;20182;-59
2024/03/03 00:41:32;;;;;;;4.57;3.40;;;;;;;;;;5015059;28;20703;-59
2024/03/03 00:43:58;;;;;;;4.40;4.00;;;;;;;;;;5020676;28;21018;-58
2024/03/03 00:46:24;;;;;;;4.40;3.30;;;;;;;;;;5014266;28;20316;-59
2024/03/03 00:48:50;;;;;;;3.43;3.13;;;;;;;;;;5017733;28;20186;-57
2024/03/03 00:51:16;;;;;;;3.80;3.43;;;;;;;;;;5018301;28;20548;-59
2024/03/03 00:53:42;;;;;;;4.97;3.67;;;;;;;;;;5014225;28;20182;-59
2024/03/03 00:56:08;;;;;;;3.53;3.23;;;;;;;;;;5014560;28;20178;-59
2024/03/03 00:58:34;;;;;;;3.70;3.33;;;;;;;;;;5014269;28;20174;-59
2024/03/03 01:01:00;;;;;;;3.30;3.00;;;;;;;;;;5015708;28;20692;-59
2024/03/03 01:03:29;;;;;;;4.20;3.43;;;;;;;;;;5015105;28;20322;-59
2024/03/03 01:05:55;;;;;;;3.97;3.13;;;;;;;;;;5021831;28;20194;-59
2024/03/03 01:08:21;;;;;;;3.70;3.40;;;;;;;;;;5019736;28;20179;-59
2024/03/03 01:10:47;;;;;;;3.30;3.00;;;;;;;;;;5010394;28;20197;-59
2024/03/03 01:13:13;;;;;;;4.07;3.50;;;;;;;;;;5011490;28;20198;-59
2024/03/03 01:15:39;;;;;;;3.87;3.23;;;;;;;;;;5016275;28;20194;-59
2024/03/03 01:18:06;;;;;;;3.17;2.70;;;;;;;;;;5021726;28;20262;-58
2024/03/03 01:20:32;;;;;;;3.97;3.43;;;;;;;;;;5013563;28;20218;-58
2024/03/03 01:22:58;;;;;;;3.80;3.43;;;;;;;;;;5021540;28;20681;-59
2024/03/03 01:25:24;;;;;;;4.90;3.60;;;;;;;;;;5018041;28;20212;-58
2024/03/03 01:27:50;;;;;;;3.30;3.00;;;;;;;;;;5017685;28;20202;-59
2024/03/03 01:30:16;;;;;;;3.20;2.87;;;;;;;;;;5019446;28;20649;-54
2024/03/03 01:32:42;;;;;;;4.33;3.93;;;;;;;;;;5020501;28;20209;-53
2024/03/03 01:35:08;;;;;;;4.67;3.30;;;;;;;;;;5019484;28;20600;-53
2024/03/03 01:37:34;;;;;;;3.43;3.10;;;;;;;;;;5018459;28;20230;-53
2024/03/03 01:40:00;;;;;;;4.33;3.60;;;;;;;;;;5012056;28;20198;-53
2024/03/03 01:42:26;;;;;;;3.40;3.10;;;;;;;;;;5015902;28;20209;-53
2024/03/03 01:44:52;;;;;;;2.93;2.63;;;;;;;;;;5019093;28;20173;-53
2024/03/03 01:47:19;;;;;;;3.53;3.23;;;;;;;;;;5013030;28;21633;-53
2024/03/03 01:49:47;;;;;;;3.57;3.20;;;;;;;;;;5013257;28;20222;-52
2024/03/03 01:52:14;;;;;;;3.90;3.13;;;;;;;;;;5016237;28;20715;-54
2024/03/03 01:54:40;;;;;;;3.60;3.30;;;;;;;;;;5019621;28;20184;-52
2024/03/03 01:57:12;;;;;;;3.90;3.40;;;;;;;;;;5013652;28;20183;-53
2024/03/03 01:59:38;;;;;;;3.67;3.37;;;;;;;;;;5020595;28;20643;-53
2024/03/03 02:02:05;;;;;;;4.47;3.40;;;;;;;;;;5019133;28;20193;-54
2024/03/03 02:04:31;;;;;;;3.70;3.40;;;;;;;;;;5020097;28;20188;-56
2024/03/03 02:06:57;;;;;;;4.07;2.83;;;;;;;;;;5022170;28;20201;-54
2024/03/03 02:09:23;;;;;;;3.93;3.53;;;;;;;;;;5022757;28;20206;-53
2024/03/03 02:11:49;;;;;;;3.77;3.37;;;;;;;;;;5015845;28;20279;-54
2024/03/03 02:14:15;;;;;;;3.60;3.30;;;;;;;;;;5019842;28;20189;-53
2024/03/03 02:16:42;;;;;;;3.23;2.93;;;;;;;;;;5017080;28;20276;-56
2024/03/03 02:19:08;;;;;;;3.83;3.27;;;;;;;;;;5017927;28;20559;-53
2024/03/03 02:21:34;;;;;;;4.07;3.43;;;;;;;;;;5010550;28;20223;-53
2024/03/03 02:24:00;;;;;;;4.47;3.40;;;;;;;;;;5016243;28;20197;-55
2024/03/03 02:26:26;;;;;;;4.10;3.47;;;;;;;;;;5013264;28;20649;-53
2024/03/03 02:28:53;;;;;;;3.93;3.00;;;;;;;;;;5013974;28;20583;-54
2024/03/03 02:31:19;;;;;;;3.73;3.30;;;;;;;;;;5016120;28;20230;-55
2024/03/03 02:33:46;;;;;;;3.70;3.30;;;;;;;;;;5021598;28;20198;-53
2024/03/03 02:36:12;;;;;;;3.90;3.50;;;;;;;;;;5019155;28;20186;-55
2024/03/03 02:38:40;;;;;;;4.53;3.40;;;;;;;;;;5015146;28;20619;-53
2024/03/03 02:41:06;;;;;;;3.77;3.07;;;;;;;;;;5017986;28;20174;-52
2024/03/03 02:43:32;;;;;;;3.60;3.07;;;;;;;;;;5015938;28;20209;-55
2024/03/03 02:45:58;;;;;;;4.20;3.60;;;;;;;;;;5012602;28;20638;-53
2024/03/03 02:48:24;;;;;;;4.50;3.37;;;;;;;;;;5018818;28;20576;-53
2024/03/03 02:50:50;;;;;;;4.90;3.97;;;;;;;;;;5013569;28;20578;-53
2024/03/03 02:53:16;;;;;;;4.20;3.60;;;;;;;;;;5017074;28;20181;-53
2024/03/03 02:55:42;;;;;;;4.17;3.57;;;;;;;;;;5014567;28;20555;-54
2024/03/03 02:58:08;;;;;;;3.83;3.43;;;;;;;;;;5020897;28;20501;-52
2024/03/03 03:00:35;;;;;;;4.60;3.10;;;;;;;;;;5018071;28;20185;-53
2024/03/03 03:03:01;;;;;;;5.37;3.50;;;;;;;;;;5018882;28;20218;-52
2024/03/03 03:05:27;;;;;;;3.43;3.13;;;;;;;;;;5011978;28;20204;-53
2024/03/03 03:07:53;;;;;;;4.20;3.40;;;;;;;;;;5016796;28;20222;-54
2024/03/03 03:10:20;;;;;;;6.47;4.00;;;;;;;;;;5017464;28;20584;-52
2024/03/03 03:12:46;;;;;;;4.07;3.67;;;;;;;;;;5014324;28;20193;-53
2024/03/03 03:15:12;;;;;;;5.27;4.03;;;;;;;;;;5017275;28;20351;-55
2024/03/03 03:17:38;;;;;;;4.50;3.60;;;;;;;;;;5012526;28;20192;-53
2024/03/03 03:20:05;;;;;;;4.17;3.70;;;;;;;;;;5014075;28;20233;-53
2024/03/03 03:22:31;;;;;;;3.83;3.37;;;;;;;;;;5016633;28;20336;-54
2024/03/03 03:24:57;;;;;;;5.13;3.97;;;;;;;;;;5019005;28;20540;-53
2024/03/03 03:27:24;;;;;;;5.17;4.13;;;;;;;;;;5012210;28;20179;-53
2024/03/03 03:29:50;;;;;;;4.53;3.80;;;;;;;;;;5016384;28;20248;-53
2024/03/03 03:32:16;;;;;;;4.93;3.87;;;;;;;;;;5015726;28;20828;-53
2024/03/03 03:34:45;;;;;;;4.07;3.67;;;;;;;;;;5019405;28;20353;-53
2024/03/03 03:37:12;;;;;;;4.43;4.03;;;;;;;;;;5021315;28;20260;-53
2024/03/03 03:39:39;;;;;;;3.63;3.33;;;;;;;;;;5013349;28;20349;-53
2024/03/03 03:42:05;;;;;;;3.87;3.50;;;;;;;;;;5019015;28;20186;-53
2024/03/03 03:44:31;;;;;;;6.50;3.87;;;;;;;;;;5029019;28;20609;-54
2024/03/03 03:46:57;;;;;;;4.13;3.63;;;;;;;;;;5018304;28;20170;-54
2024/03/03 03:49:23;;;;;;;3.90;3.53;;;;;;;;;;5026048;28;20181;-53
2024/03/03 03:51:49;;;;;;;5.50;4.40;;;;;;;;;;5019678;28;20186;-55
2024/03/03 03:54:15;;;;;;;4.73;4.20;;;;;;;;;;5026325;28;20600;-55
2024/03/03 03:56:41;;;;;;;6.13;4.47;;;;;;;;;;5012012;28;20191;-55
2024/03/03 03:59:07;;;;;;;3.90;3.53;;;;;;;;;;5017918;28;20181;-55
2024/03/03 04:01:34;;;;;;;4.00;3.30;;;;;;;;;;5019517;28;20249;-55
2024/03/03 04:04:00;;;;;;;6.20;4.43;;;;;;;;;;5021836;28;20285;-54
2024/03/03 04:06:27;;;;;;;4.80;3.70;;;;;;;;;;5017569;28;20527;-54
2024/03/03 04:08:53;;;;;;;4.03;3.50;;;;;;;;;;5019984;28;20842;-55
2024/03/03 04:11:20;;;;;;;5.43;4.80;;;;;;;;;;5017831;28;20201;-55
2024/03/03 04:13:49;;;;;;;4.17;3.43;;;;;;;;;;5024333;28;20189;-55
2024/03/03 04:16:16;;;;;;;6.13;4.90;;;;;;;;;;5012742;28;20643;-55
2024/03/03 04:18:42;;;;;;;3.80;3.40;;;;;;;;;;5019253;28;20169;-55
2024/03/03 04:21:08;;;;;;;4.50;4.10;;;;;;;;;;5014298;28;20237;-55
2024/03/03 04:23:34;;;;;;;4.53;4.10;;;;;;;;;;5015632;28;20217;-55
2024/03/03 04:26:04;;;;;;;5.27;4.73;;;;;;;;;;5015932;28;20178;-55
2024/03/03 04:28:30;;;;;;;5.20;4.37;;;;;;;;;;5025388;28;20697;-55
2024/03/03 04:30:56;;;;;;;4.47;4.07;;;;;;;;;;5021912;28;20311;-55
2024/03/03 04:33:22;;;;;;;4.60;4.20;;;;;;;;;;5016760;28;20182;-56
2024/03/03 04:35:48;;;;;;;5.53;4.87;;;;;;;;;;5019769;28;20207;-55
2024/03/03 04:38:14;;;;;;;4.20;3.80;;;;;;;;;;5029604;28;20630;-55
2024/03/03 04:40:43;;;;;;;4.80;4.30;;;;;;;;;;5014675;28;20258;-55
2024/03/03 04:43:09;;;;;;;8.23;5.70;;;;;;;;;;5019984;28;20209;-55
2024/03/03 04:45:35;;;;;;;6.13;4.60;;;;;;;;;;5027507;28;20611;-55
2024/03/03 04:48:01;;;;;;;5.00;4.07;;;;;;;;;;5015020;28;20210;-55
2024/03/03 04:50:28;;;;;;;5.17;4.67;;;;;;;;;;5014309;28;20180;-55
2024/03/03 04:52:54;;;;;;;4.77;4.33;;;;;;;;;;5013435;28;20286;-55
2024/03/03 04:55:20;;;;;;;5.00;4.20;;;;;;;;;;5014913;28;20182;-55
2024/03/03 04:57:46;;;;;;;4.63;4.23;;;;;;;;;;5017375;28;20187;-55
2024/03/03 05:00:14;;;;;;;5.60;4.10;;;;;;;;;;5018809;28;20545;-55
2024/03/03 05:02:40;;;;;;;4.70;3.93;;;;;;;;;;5010403;28;20289;-55
2024/03/03 05:05:06;;;;;;;4.57;4.10;;;;;;;;;;5018204;28;20186;-55
2024/03/03 05:07:33;;;;;;;4.53;4.13;;;;;;;;;;5015120;28;20185;-55
2024/03/03 05:09:59;;;;;;;5.07;4.57;;;;;;;;;;5012368;28;20182;-55
2024/03/03 05:12:25;;;;;;;5.37;4.70;;;;;;;;;;5022893;28;20638;-55
2024/03/03 05:14:52;;;;;;;5.97;5.00;;;;;;;;;;5025599;28;20186;-54
2024/03/03 05:17:19;;;;;;;4.80;4.07;;;;;;;;;;5014992;28;20552;-55
2024/03/03 05:19:45;;;;;;;5.43;4.40;;;;;;;;;;5023727;28;20264;-54
2024/03/03 05:22:11;;;;;;;5.00;4.33;;;;;;;;;;5023235;28;20581;-54
2024/03/03 05:24:37;;;;;;;6.93;5.40;;;;;;;;;;5015368;28;20188;-55
2024/03/03 05:27:03;;;;;;;5.73;5.10;;;;;;;;;;5014983;28;20196;-54
2024/03/03 05:29:29;;;;;;;7.17;5.83;;;;;;;;;;5020661;28;20242;-55
2024/03/03 05:31:55;;;;;;;5.67;5.17;;;;;;;;;;5015604;28;20178;-54
2024/03/03 05:34:21;;;;;;;4.97;4.40;;;;;;;;;;5024635;28;20538;-55
2024/03/03 05:36:48;;;;;;;5.67;4.80;;;;;;;;;;5018569;28;20190;-54
2024/03/03 05:39:15;;;;;;;5.43;4.63;;;;;;;;;;5009742;28;20213;-55
2024/03/03 05:41:41;;;;;;;4.93;4.00;;;;;;;;;;5012919;28;20187;-54
2024/03/03 05:44:08;;;;;;;4.03;3.63;;;;;;;;;;5014964;28;20230;-54
2024/03/03 05:46:34;;;;;;;4.40;4.00;;;;;;;;;;5016461;28;20178;-55
2024/03/03 05:49:00;;;;;;;3.97;3.40;;;;;;;;;;5014984;28;20251;-54
2024/03/03 05:51:26;;;;;;;6.20;4.47;;;;;;;;;;5015280;28;20198;-54
2024/03/03 05:53:52;;;;;;;5.60;4.53;;;;;;;;;;5021144;28;20240;-54
2024/03/03 05:56:19;;;;;;;5.83;5.13;;;;;;;;;;5020792;28;20530;-54
2024/03/03 05:58:45;;;;;;;6.73;5.60;;;;;;;;;;5020798;28;20190;-54
2024/03/03 06:01:11;;;;;;;7.17;6.10;;;;;;;;;;5012049;28;20202;-54
2024/03/03 06:03:38;;;;;;;6.30;5.03;;;;;;;;;;5013602;28;20561;-54
2024/03/03 06:06:08;;;;;;;5.87;5.23;;;;;;;;;;5012212;28;20608;-54
2024/03/03 06:08:35;;;;;;;5.23;4.63;;;;;;;;;;5016565;28;20184;-54
2024/03/03 06:11:01;;;;;;;6.40;4.90;;;;;;;;;;5018198;28;20646;-54
2024/03/03 06:13:27;;;;;;;5.90;4.50;;;;;;;;;;5009763;28;20671;-54
2024/03/03 06:15:53;;;;;;;5.07;4.13;;;;;;;;;;5011242;28;20264;-54
2024/03/03 06:18:19;;;;;;;5.30;4.40;;;;;;;;;;5010914;28;20197;-54
2024/03/03 06:20:45;;;;;;;7.23;5.20;;;;;;;;;;5010683;28;20845;-54
2024/03/03 06:23:11;;;;;;;6.17;5.17;;;;;;;;;;5013963;28;20209;-52
2024/03/03 06:25:37;;;;;;;5.30;4.43;;;;;;;;;;5011407;28;20178;-54
2024/03/03 06:28:03;;;;;;;5.00;4.37;;;;;;;;;;5016599;28;20178;-51
2024/03/03 06:30:29;;;;;;;5.57;4.77;;;;;;;;;;5011613;28;21563;-52
2024/03/03 06:32:55;;;;;;;5.20;4.50;;;;;;;;;;5015506;28;20186;-52
2024/03/03 06:35:21;;;;;;;6.60;4.73;;;;;;;;;;5012278;28;20662;-52
2024/03/03 06:37:52;;;;;;;5.53;4.23;;;;;;;;;;5022644;28;20496;-52
2024/03/03 06:40:18;;;;;;;5.73;4.90;;;;;;;;;;5008519;28;20178;-52
2024/03/03 06:42:44;;;;;;;4.83;3.80;;;;;;;;;;5020973;28;20217;-52
2024/03/03 06:45:11;;;;;;;4.70;4.10;;;;;;;;;;5021647;28;20869;-52
2024/03/03 06:47:37;;;;;;;4.10;3.60;;;;;;;;;;5030272;28;20178;-53
2024/03/03 06:50:03;;;;;;;5.37;4.23;;;;;;;;;;5011611;28;20661;-53
2024/03/03 06:52:30;;;;;;;4.77;3.57;;;;;;;;;;5024518;28;20181;-52
2024/03/03 06:54:56;;;;;;;4.60;3.80;;;;;;;;;;5022440;28;20189;-56
2024/03/03 06:57:22;;;;;;;5.10;4.07;;;;;;;;;;5010989;28;20182;-55
2024/03/03 06:59:49;;;;;;;4.07;3.67;;;;;;;;;;5013339;28;20692;-56
2024/03/03 07:02:15;;;;;;;6.73;3.30;;;;;;;;;;5021130;28;20270;-55
2024/03/03 07:04:41;;;;;;;5.37;4.47;;;;;;;;;;5017817;28;20340;-55
2024/03/03 07:07:08;;;;;;;5.33;4.40;;;;;;;;;;5013847;28;20175;-55
2024/03/03 07:09:36;;;;;;;5.10;4.60;;;;;;;;;;5019118;28;20178;-57
2024/03/03 07:12:03;;;;;;;7.83;5.13;;;;;;;;;;5013668;28;20182;-55
2024/03/03 07:14:29;;;;;;;5.87;4.73;;;;;;;;;;5018820;28;20595;-56
2024/03/03 07:16:56;;;;;;;5.47;4.53;;;;;;;;;;5019599;28;20729;-55
2024/03/03 07:19:22;;;;;;;6.53;4.77;;;;;;;;;;5022611;28;20201;-58
2024/03/03 07:21:48;;;;;;;4.60;3.97;;;;;;;;;;5018801;28;20259;-55
2024/03/03 07:24:14;;;;;;;4.57;4.17;;;;;;;;;;5013241;28;20229;-55
2024/03/03 07:26:41;;;;;;;5.47;4.23;;;;;;;;;;5011787;28;20666;-54
2024/03/03 07:29:08;;;;;;;5.33;4.27;;;;;;;;;;5026677;28;20177;-56
2024/03/03 07:31:34;;;;;;;4.90;3.93;;;;;;;;;;5021429;28;20185;-55
2024/03/03 07:34:00;;;;;;;4.67;4.17;;;;;;;;;;5021411;28;20174;-56
2024/03/03 07:36:26;;;;;;;5.67;4.30;;;;;;;;;;5023042;28;20174;-57
2024/03/03 07:38:53;;;;;;;4.83;4.13;;;;;;;;;;5022251;28;20705;-56
2024/03/03 07:41:19;;;;;;;5.70;4.13;;;;;;;;;;5019486;28;20206;-57
2024/03/03 07:43:46;;;;;;;5.20;4.60;;;;;;;;;;5024022;28;20229;-56
2024/03/03 07:46:12;;;;;;;5.30;4.57;;;;;;;;;;5015888;28;20177;-56
2024/03/03 07:48:38;;;;;;;5.63;5.13;;;;;;;;;;5017701;28;20201;-57
2024/03/03 07:51:04;;;;;;;6.37;5.30;;;;;;;;;;5018482;28;20260;-57
2024/03/03 07:53:31;;;;;;;6.10;5.23;;;;;;;;;;5023454;28;20660;-56
2024/03/03 07:55:57;;;;;;;5.27;4.67;;;;;;;;;;5015838;28;20305;-58
2024/03/03 07:58:23;;;;;;;7.20;5.20;;;;;;;;;;5014862;28;20289;-57
2024/03/03 08:00:49;;;;;;;6.40;5.77;;;;;;;;;;5012938;28;20694;-57
2024/03/03 08:03:15;;;;;;;6.07;5.47;;;;;;;;;;5016908;28;20673;-54
2024/03/03 08:05:41;;;;;;;6.27;5.40;;;;;;;;;;5013068;28;20186;-54
2024/03/03 08:08:07;;;;;;;7.10;5.83;;;;;;;;;;5020804;28;20178;-55
2024/03/03 08:10:33;;;;;;;6.93;5.57;;;;;;;;;;5025512;28;20174;-54
2024/03/03 08:12:59;;;;;;;7.43;6.43;;;;;;;;;;5017449;28;20525;-54
2024/03/03 08:15:25;;;;;;;8.97;6.20;;;;;;;;;;5026787;28;20177;-54
2024/03/03 08:17:52;;;;;;;7.30;6.07;;;;;;;;;;5023712;28;20603;-54
2024/03/03 08:20:19;;;;;;;7.37;5.80;;;;;;;;;;5022419;28;20602;-55
2024/03/03 08:22:45;;;;;;;9.20;6.50;;;;;;;;;;5014549;28;20613;-54
2024/03/03 08:25:16;;;;;;;7.30;6.10;;;;;;;;;;5017892;28;20205;-54
2024/03/03 08:27:42;;;;;;;7.23;6.23;;;;;;;;;;5018074;28;20174;-55
2024/03/03 08:30:11;;;;;;;7.73;6.80;;;;;;;;;;5016560;28;20664;-54
2024/03/03 08:32:38;;;;;;;7.50;5.80;;;;;;;;;;5017292;28;20186;-54
2024/03/03 08:35:05;;;;;;;8.93;6.27;;;;;;;;;;5017302;28;20195;-54
2024/03/03 08:37:31;;;;;;;7.13;6.33;;;;;;;;;;5020441;28;20272;-54
2024/03/03 08:39:57;;;;;;;7.10;6.27;;;;;;;;;;5015347;28;20193;-54
2024/03/03 08:42:23;;;;;;;6.40;5.63;;;;;;;;;;5018852;28;20560;-54
2024/03/03 08:44:49;;;;;;;6.83;5.90;;;;;;;;;;5022006;28;20447;-58
2024/03/03 08:47:15;;;;;;;7.50;5.63;;;;;;;;;;5017578;28;20193;-58
2024/03/03 08:49:42;;;;;;;8.40;6.13;;;;;;;;;;5020344;28;20185;-58
2024/03/03 08:52:08;;;;;;;7.32;6.50;;;;;;;;;;5015041;28;20423;-58
2024/03/03 08:54:34;;;;;;;7.47;6.20;;;;;;;;;;5017908;28;20606;-56
2024/03/03 08:57:00;;;;;;;6.87;6.27;;;;;;;;;;5020642;28;20636;-58
2024/03/03 08:59:26;;;;;;;7.80;6.83;;;;;;;;;;5018739;28;20238;-58
2024/03/03 09:01:52;;;;;;;8.70;6.27;;;;;;;;;;5018778;28;20187;-58
2024/03/03 09:04:18;;;;;;;8.40;6.53;;;;;;;;;;5020273;28;20423;-59
2024/03/03 09:06:44;;;;;;;8.43;6.80;;;;;;;;;;5017365;28;20176;-58
2024/03/03 09:09:10;;;;;;;8.30;6.67;;;;;;;;;;5015948;28;20490;-58
2024/03/03 09:11:37;;;;;;;8.90;7.40;;;;;;;;;;5016244;28;20476;-58
2024/03/03 09:14:03;;;;;;;6.47;5.87;;;;;;;;;;5011316;28;20195;-58
2024/03/03 09:16:29;;;;;;;10.53;6.80;;;;;;;;;;5020372;28;20597;-58
2024/03/03 09:18:55;;;;;;;7.53;6.80;;;;;;;;;;5015438;28;20202;-58
2024/03/03 09:21:21;;;;;;;9.43;7.07;;;;;;;;;;5016116;28;20228;-58
2024/03/03 09:23:48;;;;;;;8.17;7.30;;;;;;;;;;5019632;28;20729;-58
2024/03/03 09:26:14;;;;;;;8.00;7.17;;;;;;;;;;5018844;28;20195;-58
2024/03/03 09:28:41;;;;;;;8.17;6.93;;;;;;;;;;5014594;28;20176;-58
2024/03/03 09:31:07;;;;;;;8.13;6.83;;;;;;;;;;5019586;28;20202;-57
2024/03/03 09:33:33;;;;;;;8.63;6.07;;;;;;;;;;5018410;28;20225;-57
2024/03/03 09:35:59;;;;;;;8.57;6.40;;;;;;;;;;5017091;28;20210;-58
2024/03/03 09:38:25;;;;;;;8.87;6.83;;;;;;;;;;5014647;28;20182;-58
2024/03/03 09:40:52;;;;;;;8.13;6.60;;;;;;;;;;5013400;28;20685;-58
2024/03/03 09:43:18;;;;;;;8.13;6.83;;;;;;;;;;5011797;28;20368;-58
2024/03/03 09:45:48;;;;;;;7.63;6.70;;;;;;;;;;5014976;28;20253;-58
2024/03/03 09:48:14;;;;;;;6.80;6.10;;;;;;;;;;5013890;28;20608;-58
2024/03/03 09:50:40;;;;;;;7.13;6.37;;;;;;;;;;5014395;28;20689;-58
2024/03/03 09:53:09;;;;;;;7.27;5.90;;;;;;;;;;5018571;28;20184;-55
2024/03/03 09:55:39;;;;;;;7.60;6.00;;;;;;;;;;5015175;28;20214;-55
2024/03/03 09:58:09;;;;;;;7.20;6.27;;;;;;;;;;5014548;28;20619;-55
2024/03/03 10:00:35;;;;;;;6.87;5.97;;;;;;;;;;5017387;28;20570;-54
2024/03/03 10:03:02;;;;;;;8.70;6.60;;;;;;;;;;5008643;28;20230;-55
2024/03/03 10:05:29;;;;;;;6.80;6.00;;;;;;;;;;5016770;28;20179;-55
2024/03/03 10:08:00;;;;;;;6.40;5.73;;;;;;;;;;5013423;28;20191;-55
2024/03/03 10:10:30;;;;;;;6.27;5.63;;;;;;;;;;5013847;28;20267;-55
2024/03/03 10:12:58;;;;;;;6.87;5.97;;;;;;;;;;5016788;28;20214;-55
2024/03/03 10:15:24;;;;;;;6.20;5.60;;;;;;;;;;5017716;28;20206;-55
2024/03/03 10:17:50;;;;;;;6.30;5.37;;;;;;;;;;5010493;28;20705;-54
2024/03/03 10:20:16;;;;;;;6.30;5.70;;;;;;;;;;5017776;28;20282;-55
2024/03/03 10:22:44;;;;;;;7.30;5.70;;;;;;;;;;5009414;28;20737;-55
2024/03/03 10:25:11;;;;;;;7.07;5.90;;;;;;;;;;5015748;28;20178;-55
2024/03/03 10:27:39;;;;;;;8.23;5.50;;;;;;;;;;5011170;28;20185;-55
2024/03/03 10:30:07;;;;;;;5.50;4.97;;;;;;;;;;5012718;28;20182;-55
2024/03/03 10:32:34;;;;;;;6.00;5.23;;;;;;;;;;5019371;28;20272;-55
2024/03/03 10:35:00;;;;;;;5.93;5.00;;;;;;;;;;5015660;28;20277;-55
2024/03/03 10:37:27;;;;;;;6.37;4.97;;;;;;;;;;5016265;28;20288;-55
2024/03/03 10:39:54;;;;;;;6.33;5.00;;;;;;;;;;5013513;28;20215;-55
2024/03/03 10:42:20;;;;;;;6.13;5.33;;;;;;;;;;5012285;28;20298;-54
2024/03/03 10:44:46;;;;;;;6.17;5.23;;;;;;;;;;5012838;28;20753;-55
2024/03/03 10:47:15;;;;;;;5.57;4.97;;;;;;;;;;5010507;28;20319;-55
2024/03/03 10:49:42;;;;;;;6.57;5.30;;;;;;;;;;5012847;28;20196;-54
2024/03/03 10:52:09;;;;;;;6.17;5.00;;;;;;;;;;5013594;28;20242;-54
2024/03/03 10:54:35;;;;;;;5.63;5.10;;;;;;;;;;5014394;28;20189;-55
2024/03/03 10:57:01;;;;;;;7.53;5.47;;;;;;;;;;5017487;28;20216;-54
2024/03/03 10:59:29;;;;;;;7.53;5.77;;;;;;;;;;5019710;28;20214;-54
2024/03/03 11:01:55;;;;;;;5.90;5.33;;;;;;;;;;5010489;28;20638;-54
2024/03/03 11:04:22;;;;;;;6.30;5.70;;;;;;;;;;5015180;28;20216;-54
2024/03/03 11:06:48;;;;;;;5.67;5.07;;;;;;;;;;5017406;28;20264;-54
2024/03/03 11:09:14;;;;;;;5.63;4.83;;;;;;;;;;5014351;28;20175;-54
2024/03/03 11:11:43;;;;;;;6.27;5.67;;;;;;;;;;5019892;28;20311;-54
2024/03/03 11:14:12;;;;;;;6.20;5.30;;;;;;;;;;5018209;28;20200;-54
2024/03/03 11:16:39;;;;;;;6.87;5.27;;;;;;;;;;5020996;28;20185;-54
2024/03/03 11:19:27;;;;;;;6.73;5.17;;;;;;;;;;5009398;28;20217;-55
2024/03/03 11:21:57;;;;;;;5.67;4.77;;;;;;;;;;5013744;28;20649;-55
2024/03/03 11:24:30;;;;;;;5.30;4.80;;;;;;;;;;5018304;28;20205;-54
2024/03/03 11:27:02;;;;;;;5.97;5.27;;;;;;;;;;5014547;28;20259;-54
2024/03/03 11:29:28;;;;;;;7.03;5.43;;;;;;;;;;5017160;28;20170;-54
2024/03/03 11:31:54;;;;;;;5.10;4.60;;;;;;;;;;5019128;28;20231;-54
2024/03/03 11:34:20;;;;;;;6.80;4.63;;;;;;;;;;5014781;28;20193;-54
2024/03/03 11:36:46;;;;;;;5.53;4.93;;;;;;;;;;5022179;28;20192;-54
2024/03/03 11:39:16;;;;;;;6.13;5.23;;;;;;;;;;5011496;28;20214;-54
2024/03/03 11:41:43;;;;;;;5.47;4.87;;;;;;;;;;5009611;28;20490;-55
2024/03/03 11:44:29;;;;;;;5.13;4.63;;;;;;;;;;5009777;28;20198;-54
2024/03/03 11:46:58;;;;;;;6.33;4.60;;;;;;;;;;5006974;28;20190;-54
2024/03/03 11:49:24;;;;;;;6.23;4.60;;;;;;;;;;5014064;28;20216;-54
2024/03/03 11:51:50;;;;;;;5.67;4.27;;;;;;;;;;5010769;28;20238;-55
2024/03/03 11:54:29;;;;;;;4.80;4.37;;;;;;;;;;5011953;28;20179;-55
2024/03/03 11:56:59;;;;;;;4.90;4.40;;;;;;;;;;5010668;28;20203;-55
2024/03/03 11:59:25;;;;;;;5.17;4.20;;;;;;;;;;5011763;28;20508;-54
2024/03/03 12:01:53;;;;;;;4.93;4.50;;;;;;;;;;5020240;28;20516;-55
2024/03/03 12:04:19;;;;;;;5.03;4.53;;;;;;;;;;5018840;28;20551;-54
2024/03/03 12:06:45;;;;;;;6.40;4.53;;;;;;;;;;5019303;28;20238;-54
2024/03/03 12:09:13;;;;;;;5.03;4.47;;;;;;;;;;5011471;28;20246;-54
2024/03/03 12:11:42;;;;;;;4.93;4.17;;;;;;;;;;5012243;28;20684;-56
2024/03/03 12:14:08;;;;;;;5.07;4.37;;;;;;;;;;5023846;28;20179;-54
2024/03/03 12:16:34;;;;;;;5.23;4.30;;;;;;;;;;5016454;28;20178;-54
2024/03/03 12:19:00;;;;;;;4.53;4.13;;;;;;;;;;5012310;28;20185;-55
2024/03/03 12:21:27;;;;;;;4.60;3.97;;;;;;;;;;5015543;28;20697;-55
2024/03/03 12:23:53;;;;;;;4.77;4.13;;;;;;;;;;5021059;28;20646;-54
2024/03/03 12:26:19;;;;;;;4.70;4.03;;;;;;;;;;5019488;28;20261;-55
2024/03/03 12:28:45;;;;;;;5.40;3.63;;;;;;;;;;5014930;28;20181;-55
2024/03/03 12:31:11;;;;;;;5.17;4.20;;;;;;;;;;5018048;28;20173;-55
2024/03/03 12:33:42;;;;;;;4.43;4.03;;;;;;;;;;5010744;28;20523;-55
2024/03/03 12:36:08;;;;;;;4.20;3.80;;;;;;;;;;5015983;28;20277;-54
2024/03/03 12:38:34;;;;;;;4.90;4.17;;;;;;;;;;5021672;28;20575;-54
2024/03/03 12:41:00;;;;;;;3.97;3.67;;;;;;;;;;5012731;28;20311;-55
2024/03/03 12:43:26;;;;;;;3.47;3.17;;;;;;;;;;5020678;28;20781;-55
2024/03/03 12:45:54;;;;;;;4.70;4.00;;;;;;;;;;5018193;28;20222;-55
2024/03/03 12:48:21;;;;;;;3.90;3.50;;;;;;;;;;5017526;28;20543;-55
2024/03/03 12:50:55;;;;;;;4.30;3.90;;;;;;;;;;5017908;28;20240;-55
2024/03/03 12:53:21;;;;;;;4.53;4.13;;;;;;;;;;5014906;28;20185;-55
2024/03/03 12:55:47;;;;;;;4.73;3.63;;;;;;;;;;5015545;28;20189;-55
2024/03/03 12:58:15;;;;;;;3.60;3.30;;;;;;;;;;5015463;28;20687;-55
2024/03/03 13:00:45;;;;;;;5.50;3.90;;;;;;;;;;5018489;28;20190;-55
2024/03/03 13:03:11;;;;;;;4.27;3.70;;;;;;;;;;5017175;28;20207;-54
2024/03/03 13:05:37;;;;;;;3.87;3.47;;;;;;;;;;5015813;28;20182;-56
2024/03/03 13:08:03;;;;;;;3.80;3.50;;;;;;;;;;5021371;28;20186;-55
2024/03/03 13:10:30;;;;;;;4.03;3.57;;;;;;;;;;5017341;28;20174;-54
2024/03/03 13:12:56;;;;;;;4.80;3.10;;;;;;;;;;5013740;28;20227;-54
2024/03/03 13:15:23;;;;;;;5.03;3.83;;;;;;;;;;5012384;28;20303;-56
2024/03/03 13:18:03;;;;;;;5.93;3.57;;;;;;;;;;5015118;28;20208;-55
2024/03/03 13:20:29;;;;;;;4.53;3.40;;;;;;;;;;5012730;28;20222;-55
2024/03/03 13:23:14;;;;;;;4.80;3.60;;;;;;;;;;5017341;28;20189;-55
2024/03/03 13:25:44;;;;;;;3.73;3.40;;;;;;;;;;5017780;28;20725;-57
2024/03/03 13:28:14;;;;;;;3.83;3.43;;;;;;;;;;5014923;28;20392;-55
2024/03/03 13:30:40;;;;;;;3.27;2.97;;;;;;;;;;5019523;28;20273;-57
2024/03/03 13:33:07;;;;;;;4.80;3.30;;;;;;;;;;5016140;28;20277;-58
2024/03/03 13:35:33;;;;;;;3.30;3.00;;;;;;;;;;5012392;28;20196;-58
2024/03/03 13:37:59;;;;;;;3.90;3.50;;;;;;;;;;5020188;28;20380;-58
2024/03/03 13:40:25;;;;;;;5.30;3.40;;;;;;;;;;5016890;28;20179;-55
2024/03/03 13:42:51;;;;;;;3.93;3.53;;;;;;;;;;5016795;28;20225;-55
2024/03/03 13:45:17;;;;;;;4.37;3.27;;;;;;;;;;5017801;28;20595;-55
2024/03/03 13:47:43;;;;;;;3.63;3.33;;;;;;;;;;5009962;28;20182;-55
2024/03/03 13:50:09;;;;;;;3.77;3.43;;;;;;;;;;5013645;28;20193;-55
2024/03/03 13:52:37;;;;;;;4.43;3.40;;;;;;;;;;5020883;28;20212;-55
2024/03/03 13:55:03;;;;;;;3.70;3.40;;;;;;;;;;5010389;28;20618;-55
2024/03/03 13:57:29;;;;;;;5.17;3.57;;;;;;;;;;5014000;28;20575;-54
2024/03/03 13:59:55;;;;;;;4.53;3.63;;;;;;;;;;5018425;28;20220;-55
2024/03/03 14:02:21;;;;;;;3.60;3.20;;;;;;;;;;5010212;28;20210;-55
2024/03/03 14:04:47;;;;;;;4.03;3.03;;;;;;;;;;5020148;28;20283;-55
2024/03/03 14:07:13;;;;;;;3.27;2.90;;;;;;;;;;5010504;28;20576;-55
2024/03/03 14:09:39;;;;;;;3.47;3.17;;;;;;;;;;5015399;28;20594;-54
2024/03/03 14:12:06;;;;;;;3.30;3.00;;;;;;;;;;5016060;28;20189;-55
2024/03/03 14:14:32;;;;;;;3.40;3.10;;;;;;;;;;5014193;28;20269;-55
2024/03/03 14:16:59;;;;;;;3.67;3.33;;;;;;;;;;5019500;28;20692;-55
2024/03/03 14:19:25;;;;;;;3.63;3.33;;;;;;;;;;5015293;28;20200;-54
2024/03/03 14:21:54;;;;;;;3.17;2.87;;;;;;;;;;5012924;28;20282;-55
2024/03/03 14:24:20;;;;;;;3.47;3.17;;;;;;;;;;5014044;28;20209;-54
2024/03/03 14:26:46;;;;;;;3.47;3.10;;;;;;;;;;5008272;28;20182;-55
2024/03/03 14:29:13;;;;;;;3.27;2.93;;;;;;;;;;5012290;28;20229;-55
2024/03/03 14:31:39;;;;;;;3.50;3.20;;;;;;;;;;5016584;28;20174;-55
2024/03/03 14:34:06;;;;;;;4.17;3.27;;;;;;;;;;5014896;28;20696;-51
2024/03/03 14:36:32;;;;;;;4.33;3.93;;;;;;;;;;5017207;28;20598;-51
2024/03/03 14:38:58;;;;;;;3.77;3.47;;;;;;;;;;5015199;28;20177;-51